Time;durP1;ratioP1;P1;durP2;ratioP2;P2;SDS_P1;SDS_P2;PMS_P1;PMS_P2;Temp;Humidity;BMP_temperature;BMP_pressure;BME280_temperature;BME280_humidity;BME280_pressure;Samples;Min_cycle;Max_cycle;Signal;HPM_P1;HPM_P2
2022/12/28 00:01:20;;;;;;;34.35;15.55;;;;;;;4.05;63.97;100775.47;1702775;83;21150;-64
2022/12/28 00:03:47;;;;;;;29.67;13.32;;;;;;;4.01;63.91;100771.77;1704080;82;21098;-64
2022/12/28 00:06:14;;;;;;;13.43;4.83;;;;;;;4.04;63.74;100784.19;1702321;81;21105;-64
2022/12/28 00:08:41;;;;;;;11.05;4.80;;;;;;;4.14;63.42;100787.67;1694141;83;21174;-65
2022/12/28 00:11:13;;;;;;;13.55;4.28;;;;;;;4.15;63.42;100807.11;1732716;81;21031;-65
2022/12/28 00:13:40;;;;;;;8.45;1.85;;;;;;;4.14;63.39;100793.72;1688895;82;22282;-64
2022/12/28 00:16:09;;;;;;;9.15;4.17;;;;;;;4.11;63.45;100791.72;1704604;82;21522;-64
2022/12/28 00:18:36;;;;;;;13.18;5.92;;;;;;;4.11;63.51;100793.86;1723047;82;21083;-65
2022/12/28 00:21:04;;;;;;;10.40;5.58;;;;;;;4.10;63.53;100788.25;1706620;82;21266;-65
2022/12/28 00:23:31;;;;;;;4.45;1.55;;;;;;;4.08;63.35;100804.41;1693664;82;21593;-65
2022/12/28 00:26:10;;;;;;;6.85;1.87;;;;;;;4.05;63.32;100807.16;1708579;82;21045;-66
2022/12/28 00:28:36;;;;;;;9.33;3.85;;;;;;;4.01;63.46;100784.78;1717692;82;21389;-65
2022/12/28 00:31:03;;;;;;;6.70;2.65;;;;;;;3.99;63.58;100790.53;1703290;83;21086;-65
2022/12/28 00:33:30;;;;;;;6.62;3.17;;;;;;;4.02;63.58;100804.72;1696767;83;21124;-64
2022/12/28 00:35:58;;;;;;;7.12;1.82;;;;;;;4.07;63.51;100791.02;1703668;82;21079;-65
2022/12/28 00:38:27;;;;;;;5.92;1.35;;;;;;;4.10;63.46;100801.27;1714773;82;21061;-64
2022/12/28 00:40:53;;;;;;;5.70;2.08;;;;;;;4.04;63.56;100798.51;1716666;82;21051;-64
2022/12/28 00:43:19;;;;;;;9.68;3.85;;;;;;;4.01;63.73;100806.92;1713629;82;21057;-64
2022/12/28 00:45:46;;;;;;;4.05;1.17;;;;;;;3.94;63.91;100805.05;1716672;82;21242;-64
2022/12/28 00:48:13;;;;;;;4.97;1.47;;;;;;;3.91;64.08;100813.84;1710471;82;21062;-65
2022/12/28 00:50:41;;;;;;;10.70;3.47;;;;;;;3.83;64.29;100812.06;1707898;82;21524;-65
2022/12/28 00:53:10;;;;;;;9.75;3.58;;;;;;;3.78;64.46;100802.75;1704973;82;21077;-66
2022/12/28 00:55:36;;;;;;;7.95;3.55;;;;;;;3.76;64.66;100811.92;1706512;83;21348;-65
2022/12/28 00:58:05;;;;;;;7.75;3.85;;;;;;;3.83;64.57;100813.80;1711458;82;21265;-65
2022/12/28 01:00:32;;;;;;;10.05;3.87;;;;;;;3.89;64.55;100820.05;1707932;82;21046;-65
2022/12/28 01:02:58;;;;;;;6.10;2.05;;;;;;;3.89;64.58;100814.37;1706749;82;21125;-65
2022/12/28 01:05:25;;;;;;;4.65;1.55;;;;;;;3.87;64.62;100812.77;1712337;82;21056;-66
2022/12/28 01:07:52;;;;;;;6.00;1.62;;;;;;;3.84;64.79;100820.70;1717766;82;21045;-65
2022/12/28 01:10:18;;;;;;;7.22;2.22;;;;;;;3.81;64.91;100821.67;1698910;82;21478;-65
2022/12/28 01:12:45;;;;;;;11.50;4.28;;;;;;;3.76;65.05;100826.24;1706459;81;21002;-66
2022/12/28 01:15:13;;;;;;;9.38;3.70;;;;;;;3.73;65.17;100825.08;1718592;82;21109;-65
2022/12/28 01:17:40;;;;;;;2.30;0.70;;;;;;;3.76;65.21;100823.64;1705633;82;21043;-64
2022/12/28 01:20:09;;;;;;;5.05;1.92;;;;;;;3.84;65.15;100822.84;1702841;82;21117;-64
2022/12/28 01:22:35;;;;;;;9.08;3.98;;;;;;;3.93;65.00;100823.34;1715042;82;21178;-64
2022/12/28 01:25:02;;;;;;;8.75;3.50;;;;;;;3.96;64.98;100833.16;1701433;82;21038;-64
2022/12/28 01:27:29;;;;;;;13.75;4.20;;;;;;;3.95;65.00;100824.11;1725938;82;21117;-64
2022/12/28 01:29:55;;;;;;;6.53;1.87;;;;;;;3.94;65.06;100818.08;1710919;82;21086;-64
2022/12/28 01:32:24;;;;;;;5.08;2.60;;;;;;;3.92;65.10;100816.00;1717003;82;21567;-64
2022/12/28 01:34:50;;;;;;;8.83;4.25;;;;;;;3.87;65.18;100816.20;1701181;82;21875;-64
2022/12/28 01:37:17;;;;;;;5.15;1.20;;;;;;;3.83;65.38;100821.17;1710117;82;22217;-64
2022/12/28 01:39:45;;;;;;;9.93;2.15;;;;;;;3.83;65.43;100820.31;1696792;83;21180;-64
2022/12/28 01:42:17;;;;;;;4.42;2.25;;;;;;;3.81;65.51;100810.42;1713025;82;21082;-65
2022/12/28 01:44:48;;;;;;;8.65;1.37;;;;;;;3.78;65.62;100814.00;1709165;83;21128;-64
2022/12/28 01:47:24;;;;;;;5.30;1.05;;;;;;;3.82;65.62;100814.73;1718825;82;21931;-66
2022/12/28 01:50:05;;;;;;;5.83;2.20;;;;;;;3.84;65.66;100815.50;1707853;82;21643;-66
2022/12/28 01:52:56;;;;;;;8.88;4.37;;;;;;;3.88;65.59;100811.39;1687218;82;21038;-67
2022/12/28 01:55:33;;;;;;;5.72;2.87;;;;;;;3.85;65.71;100813.27;1696391;82;21046;-65
2022/12/28 01:58:17;;;;;;;9.43;4.20;;;;;;;3.84;65.86;100815.03;1709694;82;21093;-65
2022/12/28 02:00:44;;;;;;;14.10;4.97;;;;;;;3.81;65.96;100819.07;1729886;81;21122;-64
2022/12/28 02:03:17;;;;;;;5.37;1.80;;;;;;;3.79;66.03;100830.02;1733460;81;21113;-65
2022/12/28 02:05:51;;;;;;;4.45;1.30;;;;;;;3.81;66.04;100823.45;1720381;81;21094;-65
2022/12/28 02:08:44;;;;;;;4.92;1.40;;;;;;;3.88;65.90;100828.75;1691888;83;21006;-64
2022/12/28 02:11:12;;;;;;;4.95;1.90;;;;;;;3.96;65.75;100833.16;1694825;83;21109;-65
2022/12/28 02:13:39;;;;;;;11.78;5.12;;;;;;;4.00;65.75;100828.66;1693591;83;21261;-64
2022/12/28 02:16:09;;;;;;;7.45;4.15;;;;;;;4.00;65.85;100820.84;1730077;81;21650;-66
2022/12/28 02:18:35;;;;;;;9.85;4.53;;;;;;;3.99;65.80;100834.80;1704130;82;21069;-65
2022/12/28 02:21:22;;;;;;;6.37;2.37;;;;;;;3.96;65.82;100833.16;1713536;82;21076;-65
2022/12/28 02:24:19;;;;;;;9.65;4.55;;;;;;;3.96;65.96;100825.81;1699393;82;21091;-66
2022/12/28 02:27:43;;;;;;;7.35;1.72;;;;;;;3.93;66.04;100837.67;1678307;82;21335;-65
2022/12/28 02:30:12;;;;;;;6.33;1.62;;;;;;;3.95;66.05;100829.33;1707686;82;21205;-64
2022/12/28 02:32:55;;;;;;;5.17;1.85;;;;;;;4.05;65.87;100829.29;1700549;81;21607;-64
2022/12/28 02:35:40;;;;;;;8.93;2.65;;;;;;;4.11;65.75;100829.48;1704293;82;21056;-63
2022/12/28 02:38:28;;;;;;;7.53;2.83;;;;;;;4.11;65.73;100837.30;1699685;82;21744;-64
2022/12/28 02:41:15;;;;;;;8.35;3.45;;;;;;;4.07;65.73;100846.55;1700625;82;21198;-66
2022/12/28 02:43:41;;;;;;;14.38;7.72;;;;;;;4.01;65.86;100834.27;1702798;82;21105;-65
2022/12/28 02:52:23;;;;;;;11.10;6.55;;;;;;;4.07;65.88;100854.36;1710267;82;22406;-66
2022/12/28 02:58:14;;;;;;;9.60;2.70;;;;;;;4.15;65.75;100861.81;1706150;82;21592;-65
2022/12/28 03:01:09;;;;;;;13.35;5.53;;;;;;;4.12;65.75;100859.80;1706953;82;21097;-67
2022/12/28 03:03:41;;;;;;;10.68;5.22;;;;;;;4.08;65.85;100856.50;1713820;82;21014;-65
2022/12/28 03:09:32;;;;;;;5.83;1.60;;;;;;;4.02;66.04;100852.89;1718138;82;21539;-64
2022/12/28 03:12:07;;;;;;;6.67;2.72;;;;;;;4.01;66.14;100868.11;1705815;82;22275;-65
2022/12/28 03:14:42;;;;;;;5.83;2.30;;;;;;;4.03;66.13;100861.07;1708255;82;21532;-64
2022/12/28 03:31:16;;;;;;;10.15;5.42;;;;;;;4.25;65.64;100881.34;1730766;81;21379;-64
2022/12/28 03:33:46;;;;;;;5.30;2.37;;;;;;;4.23;65.61;100884.45;1717536;82;21129;-64
2022/12/28 03:36:29;;;;;;;10.18;5.28;;;;;;;4.18;65.63;100887.72;1713129;81;21193;-64
2022/12/28 03:39:15;;;;;;;9.75;5.20;;;;;;;4.15;65.68;100878.73;1704496;82;21094;-65
2022/12/28 03:44:56;;;;;;;9.28;4.65;;;;;;;4.28;65.57;100885.55;1726149;81;21038;-64
2022/12/28 03:47:23;;;;;;;7.50;3.08;;;;;;;4.38;65.44;100884.20;1729382;81;21220;-64
2022/12/28 03:49:49;;;;;;;5.62;2.08;;;;;;;4.47;65.31;100886.84;1731728;81;21218;-64
2022/12/28 03:52:16;;;;;;;11.33;4.92;;;;;;;4.48;65.22;100878.59;1713983;81;21060;-64
2022/12/28 03:54:44;;;;;;;7.75;1.87;;;;;;;4.48;65.10;100872.07;1715890;82;21164;-64
2022/12/28 03:57:11;;;;;;;10.70;5.17;;;;;;;4.48;65.02;100881.19;1718508;82;21045;-64
2022/12/28 03:59:40;;;;;;;10.80;5.12;;;;;;;4.46;64.92;100889.08;1706189;81;21085;-64
2022/12/28 04:02:07;;;;;;;12.00;5.22;;;;;;;4.44;64.94;100879.19;1732579;81;21260;-64
2022/12/28 04:04:34;;;;;;;9.73;4.87;;;;;;;4.39;65.09;100887.21;1685271;83;21102;-64
2022/12/28 04:07:01;;;;;;;4.80;1.87;;;;;;;4.42;65.12;100888.81;1698347;82;21377;-65
2022/12/28 04:09:28;;;;;;;4.15;1.60;;;;;;;4.48;64.86;100907.25;1698035;83;21544;-65
2022/12/28 04:11:55;;;;;;;13.08;4.85;;;;;;;4.48;64.72;100900.27;1692725;83;21890;-65
2022/12/28 04:14:29;;;;;;;10.58;4.95;;;;;;;4.41;64.82;100895.80;1681051;84;21194;-63
2022/12/28 04:16:57;;;;;;;5.20;1.75;;;;;;;4.33;65.02;100890.09;1699427;82;21582;-64
2022/12/28 04:19:25;;;;;;;5.78;2.55;;;;;;;4.28;65.19;100894.20;1699131;82;21034;-64
2022/12/28 04:21:51;;;;;;;10.28;4.62;;;;;;;4.26;65.33;100903.02;1712546;81;21074;-64
2022/12/28 04:24:18;;;;;;;10.63;5.80;;;;;;;4.23;65.39;100896.17;1694773;83;21100;-66
2022/12/28 04:26:45;;;;;;;14.50;7.75;;;;;;;4.22;65.36;100900.14;1722861;82;21366;-67
2022/12/28 04:29:13;;;;;;;15.20;9.55;;;;;;;4.20;65.34;100896.77;1688563;83;21086;-65
2022/12/28 04:31:47;;;;;;;15.90;9.50;;;;;;;4.27;65.13;100896.91;1692388;83;21022;-65
2022/12/28 04:34:15;;;;;;;7.42;3.92;;;;;;;4.32;64.98;100912.30;1697257;83;21545;-65
2022/12/28 04:36:59;;;;;;;10.55;5.10;;;;;;;4.32;64.99;100905.79;1693573;82;21096;-65
2022/12/28 04:39:26;;;;;;;7.83;2.33;;;;;;;4.27;65.04;100903.41;1694086;83;21267;-65
2022/12/28 04:41:53;;;;;;;6.03;2.20;;;;;;;4.24;65.10;100913.97;1693966;83;21041;-65
2022/12/28 04:44:19;;;;;;;8.73;5.50;;;;;;;4.18;65.26;100920.75;1700366;82;21142;-64
2022/12/28 04:46:46;;;;;;;10.32;4.95;;;;;;;4.13;65.47;100912.30;1697460;82;21026;-64
2022/12/28 04:49:12;;;;;;;10.28;4.87;;;;;;;4.13;65.66;100920.11;1697943;82;21070;-64
2022/12/28 04:51:39;;;;;;;9.08;5.15;;;;;;;4.26;65.49;100918.18;1718071;81;21080;-64
2022/12/28 04:54:06;;;;;;;8.43;2.00;;;;;;;4.35;65.37;100930.41;1701540;82;21560;-62
2022/12/28 04:56:32;;;;;;;6.80;2.45;;;;;;;4.38;65.30;100935.48;1705323;82;21689;-62
2022/12/28 04:59:00;;;;;;;9.33;5.15;;;;;;;4.38;65.20;100936.79;1708793;82;21023;-62
2022/12/28 05:01:27;;;;;;;7.40;2.55;;;;;;;4.36;65.29;100937.32;1705012;82;21196;-64
2022/12/28 05:03:54;;;;;;;9.38;2.90;;;;;;;4.31;65.45;100934.91;1703929;82;21225;-63
2022/12/28 05:06:21;;;;;;;9.80;5.12;;;;;;;4.29;65.72;100944.56;1700102;82;21116;-64
2022/12/28 05:08:48;;;;;;;5.80;2.35;;;;;;;4.25;66.05;100946.47;1705798;82;21119;-61
2022/12/28 05:11:18;;;;;;;6.05;2.47;;;;;;;4.27;66.33;100955.52;1708714;82;21106;-63
2022/12/28 05:13:45;;;;;;;8.45;5.25;;;;;;;4.28;66.63;100956.72;1705123;82;21135;-64
2022/12/28 05:16:14;;;;;;;8.30;4.87;;;;;;;4.27;66.93;100948.54;1715212;82;21223;-64
2022/12/28 05:18:40;;;;;;;9.55;4.90;;;;;;;4.24;67.16;100948.67;1710934;82;21100;-64
2022/12/28 05:21:14;;;;;;;6.75;2.50;;;;;;;4.22;67.42;100943.13;1709904;82;21105;-64
2022/12/28 05:23:42;;;;;;;6.23;2.60;;;;;;;4.18;67.71;100946.33;1706000;82;21085;-62
2022/12/28 05:26:11;;;;;;;11.55;5.53;;;;;;;4.11;67.92;100946.69;1702731;82;21051;-62
2022/12/28 05:28:38;;;;;;;8.85;5.00;;;;;;;4.03;68.13;100942.64;1708985;82;21230;-63
2022/12/28 05:31:07;;;;;;;21.57;3.85;;;;;;;4.07;68.26;100949.89;1697690;82;21105;-62
2022/12/28 05:33:34;;;;;;;7.87;2.85;;;;;;;4.13;68.13;100951.36;1702863;82;21588;-63
2022/12/28 05:36:08;;;;;;;10.80;5.50;;;;;;;4.21;68.24;100960.52;1694787;83;21066;-62
2022/12/28 05:38:35;;;;;;;7.20;2.72;;;;;;;4.25;68.11;100959.93;1704073;82;21086;-62
2022/12/28 05:41:08;;;;;;;5.90;2.47;;;;;;;4.22;67.94;100958.32;1707398;82;21258;-64
2022/12/28 05:43:34;;;;;;;8.73;2.98;;;;;;;4.19;68.13;100956.31;1711190;81;21078;-64
2022/12/28 05:46:06;;;;;;;9.28;5.30;;;;;;;4.16;68.19;100958.58;1707000;82;21041;-62
2022/12/28 05:48:34;;;;;;;9.10;5.10;;;;;;;4.13;68.15;100963.92;1710950;82;21224;-61
2022/12/28 05:54:11;;;;;;;8.68;5.33;;;;;;;4.04;68.68;100974.29;1865709;75;22960;-81
2022/12/28 05:56:38;;;;;;;8.63;5.53;;;;;;;4.24;68.02;100972.58;1839689;77;20944;-80
2022/12/28 05:59:06;;;;;;;5.12;2.08;;;;;;;4.22;67.87;100979.59;1845866;77;21435;-81
2022/12/28 06:01:35;;;;;;;6.28;2.50;;;;;;;4.18;68.04;100980.66;1851516;77;20970;-81
2022/12/28 06:04:07;;;;;;;11.22;5.42;;;;;;;4.14;67.97;100985.16;1849521;77;21003;-81
2022/12/28 06:06:35;;;;;;;5.97;2.25;;;;;;;4.09;68.03;100993.63;1826023;78;21045;-81
2022/12/28 06:09:02;;;;;;;9.90;3.00;;;;;;;4.11;68.01;100998.31;1841069;77;21054;-82
2022/12/28 06:11:28;;;;;;;8.63;4.72;;;;;;;4.16;67.81;100995.05;1842835;77;21097;-82
2022/12/28 06:13:55;;;;;;;5.55;2.65;;;;;;;4.22;67.64;101001.73;1853169;77;20989;-82
2022/12/28 06:16:27;;;;;;;11.08;5.62;;;;;;;4.27;67.51;101013.67;1818435;77;21002;-83
2022/12/28 06:18:53;;;;;;;5.17;2.08;;;;;;;4.33;67.47;101007.33;1834444;77;21037;-83
2022/12/28 06:21:28;;;;;;;6.40;3.08;;;;;;;4.40;67.19;101016.56;1858187;77;20855;-82
2022/12/28 06:23:59;;;;;;;6.50;3.10;;;;;;;4.43;66.86;101020.81;1844090;77;21133;-83
2022/12/28 06:26:28;;;;;;;5.85;2.40;;;;;;;4.36;66.64;101026.75;1846234;77;21404;-81
2022/12/28 06:28:54;;;;;;;8.95;4.67;;;;;;;4.40;66.45;101030.89;1838882;77;21499;-82
2022/12/28 06:31:23;;;;;;;5.92;2.42;;;;;;;4.51;66.14;101035.66;1829641;77;21499;-82
2022/12/28 06:33:53;;;;;;;7.90;4.75;;;;;;;4.55;65.46;101034.59;1848822;77;20978;-83
2022/12/28 06:36:27;;;;;;;10.10;5.30;;;;;;;4.51;65.10;101035.66;1851747;77;21454;-82
2022/12/28 06:38:55;;;;;;;6.22;2.95;;;;;;;4.46;65.18;101048.05;1834109;77;21531;-82
2022/12/28 06:41:21;;;;;;;10.68;2.70;;;;;;;4.38;65.17;101047.52;1838167;77;20987;-81
2022/12/28 06:43:48;;;;;;;9.33;5.08;;;;;;;4.30;65.40;101050.91;1844355;75;20967;-81
2022/12/28 06:46:16;;;;;;;12.47;4.92;;;;;;;4.32;65.49;101055.59;1842741;75;20993;-84
2022/12/28 06:48:42;;;;;;;7.10;2.30;;;;;;;4.35;65.27;101056.77;1805103;78;21220;-82
2022/12/28 06:51:24;;;;;;;7.40;2.47;;;;;;;4.35;65.36;101056.30;1801814;78;21050;-80
2022/12/28 06:53:51;;;;;;;6.55;2.62;;;;;;;4.32;65.49;101063.41;1798479;78;21551;-80
2022/12/28 06:56:21;;;;;;;8.43;4.67;;;;;;;4.26;65.50;101066.67;1806426;79;21030;-80
2022/12/28 06:58:48;;;;;;;7.80;2.58;;;;;;;4.21;65.56;101071.70;1836509;77;21507;-80
2022/12/28 07:01:21;;;;;;;9.90;5.55;;;;;;;4.17;65.58;101077.50;1835090;77;21102;-81
2022/12/28 07:03:49;;;;;;;6.47;2.60;;;;;;;4.14;65.61;101082.83;1834344;77;21020;-81
2022/12/28 07:06:16;;;;;;;9.48;5.10;;;;;;;4.14;65.61;101084.60;1833624;77;21121;-81
2022/12/28 07:08:43;;;;;;;11.28;5.75;;;;;;;4.23;65.37;101092.02;1802692;78;21002;-81
2022/12/28 07:11:16;;;;;;;8.60;3.20;;;;;;;4.32;65.33;101085.13;1837989;77;21410;-84
2022/12/28 07:13:42;;;;;;;13.10;5.72;;;;;;;4.42;65.20;101094.67;1845941;77;21106;-81
2022/12/28 07:16:13;;;;;;;12.18;5.67;;;;;;;4.48;64.59;101101.41;1838967;77;20955;-83
2022/12/28 07:18:40;;;;;;;7.85;2.40;;;;;;;4.50;64.54;101099.10;1833607;77;21002;-82
2022/12/28 07:21:21;;;;;;;9.68;5.22;;;;;;;4.53;64.48;101098.14;1846321;77;20911;-81
2022/12/28 07:23:58;;;;;;;7.45;2.75;;;;;;;4.55;64.37;101098.45;1835695;77;20903;-83
2022/12/28 07:26:28;;;;;;;9.55;5.08;;;;;;;4.58;64.06;101099.62;1835875;77;21831;-81
2022/12/28 07:28:56;;;;;;;8.53;5.28;;;;;;;4.59;63.63;101096.55;1839468;77;21037;-83
2022/12/28 07:31:28;;;;;;;11.80;4.72;;;;;;;4.62;63.50;101093.38;1844994;77;21011;-82
2022/12/28 07:33:56;;;;;;;12.68;4.85;;;;;;;4.73;63.36;101095.97;1839441;77;20995;-81
2022/12/28 07:36:25;;;;;;;6.20;2.58;;;;;;;4.83;62.78;101101.16;1830531;77;21083;-84
2022/12/28 07:38:51;;;;;;;6.42;2.37;;;;;;;4.84;62.71;101095.88;1832669;77;21794;-82
2022/12/28 07:41:20;;;;;;;9.00;5.17;;;;;;;4.88;62.41;101093.97;1834807;77;21073;-82
2022/12/28 07:43:49;;;;;;;9.73;2.22;;;;;;;4.90;62.17;101090.00;1833386;77;21559;-80
2022/12/28 07:46:19;;;;;;;6.55;2.60;;;;;;;4.88;62.07;101091.36;1836317;77;21018;-81
2022/12/28 07:48:46;;;;;;;7.17;2.98;;;;;;;4.88;62.06;101099.66;1837575;77;20992;-81
2022/12/28 07:51:20;;;;;;;8.58;5.17;;;;;;;4.86;62.18;101097.11;1835772;77;21304;-80
2022/12/28 07:53:48;;;;;;;11.63;5.00;;;;;;;4.82;61.93;101115.09;1804071;77;21011;-82
2022/12/28 07:56:14;;;;;;;10.90;4.92;;;;;;;4.75;61.98;101100.65;1751137;79;21098;-82
2022/12/28 07:58:41;;;;;;;6.72;2.85;;;;;;;4.81;61.92;101105.60;1786399;78;21022;-81
2022/12/28 08:01:11;;;;;;;10.75;4.95;;;;;;;4.88;61.86;101120.05;1782503;78;20973;-81
2022/12/28 08:03:38;;;;;;;9.45;4.72;;;;;;;4.84;61.85;101122.39;1785698;78;21050;-82
2022/12/28 08:06:09;;;;;;;6.25;3.10;;;;;;;4.81;62.03;101126.46;1784892;78;21011;-83
2022/12/28 08:08:38;;;;;;;5.85;2.40;;;;;;;4.79;62.04;101123.92;1783463;78;21045;-84
2022/12/28 08:11:07;;;;;;;10.58;4.75;;;;;;;4.75;61.93;101121.04;1780465;78;21101;-82
2022/12/28 08:13:37;;;;;;;8.83;5.00;;;;;;;4.72;62.10;101119.03;1782159;78;21509;-82
2022/12/28 08:16:04;;;;;;;8.90;2.85;;;;;;;4.64;62.02;101138.47;1745874;80;21191;-81
2022/12/28 08:18:32;;;;;;;6.22;2.50;;;;;;;4.56;62.22;101128.82;1782014;78;21027;-80
2022/12/28 08:33:37;;;;;;;15.88;5.35;;;;;;;4.89;61.88;101135.23;1780275;78;21097;-80
2022/12/28 08:36:22;;;;;;;9.80;2.65;;;;;;;4.88;61.37;101136.17;1781552;80;21035;-82
2022/12/28 08:38:49;;;;;;;5.08;1.70;;;;;;;4.91;61.60;101130.79;1784518;80;21576;-83
2022/12/28 08:41:18;;;;;;;7.65;4.45;;;;;;;4.92;60.66;101128.58;1783775;80;21062;-81
2022/12/28 08:43:45;;;;;;;9.45;5.03;;;;;;;4.92;60.42;101137.24;1783770;78;21135;-80
2022/12/28 08:46:15;;;;;;;7.60;2.90;;;;;;;4.90;60.63;101136.47;1780848;80;21174;-81
2022/12/28 08:48:42;;;;;;;9.55;4.65;;;;;;;4.92;60.70;101143.77;1779816;80;20995;-80
2022/12/28 08:52:06;;;;;;;6.62;2.35;;;;;;;5.01;60.40;101150.36;1779329;78;21041;-81
2022/12/28 08:54:36;;;;;;;8.65;2.72;;;;;;;5.14;60.15;101149.33;1807813;77;21012;-81
2022/12/28 08:57:24;;;;;;;9.85;4.97;;;;;;;5.27;60.06;101148.33;1822605;78;21048;-82
2022/12/28 08:59:53;;;;;;;11.50;5.55;;;;;;;5.33;59.77;101160.64;1825242;77;21517;-81
2022/12/28 09:02:19;;;;;;;12.18;5.35;;;;;;;5.31;59.42;101155.09;1835472;77;21039;-81
2022/12/28 09:04:46;;;;;;;9.48;5.35;;;;;;;5.27;59.38;101149.16;1818459;77;21027;-81
2022/12/28 09:07:13;;;;;;;10.15;5.40;;;;;;;5.28;59.55;101160.44;1816393;77;21658;-82
2022/12/28 09:09:40;;;;;;;6.90;2.90;;;;;;;5.28;59.67;101152.17;1837344;77;21043;-80
2022/12/28 09:12:06;;;;;;;11.05;5.33;;;;;;;5.27;59.69;101154.38;1829666;77;21769;-81
2022/12/28 09:14:33;;;;;;;13.75;5.22;;;;;;;5.29;58.90;101153.84;1830286;77;21050;-82
2022/12/28 09:17:01;;;;;;;9.10;4.95;;;;;;;5.32;58.84;101149.80;1836595;77;21070;-81
2022/12/28 09:19:27;;;;;;;8.18;3.08;;;;;;;5.37;58.68;101155.66;1806521;78;21052;-81
2022/12/28 09:21:54;;;;;;;7.40;2.47;;;;;;;5.42;58.55;101152.84;1827812;77;20955;-81
2022/12/28 09:24:21;;;;;;;9.03;4.87;;;;;;;5.46;58.23;101150.93;1826954;77;21130;-82
2022/12/28 09:26:49;;;;;;;7.72;4.70;;;;;;;5.48;57.69;101155.61;1820919;77;21478;-82
2022/12/28 09:29:16;;;;;;;8.28;2.40;;;;;;;5.44;57.85;101163.21;1856521;77;20998;-82
2022/12/28 09:31:43;;;;;;;7.15;2.62;;;;;;;5.39;57.52;101152.51;1856849;77;21014;-82
2022/12/28 09:34:16;;;;;;;5.00;1.90;;;;;;;5.44;57.22;101144.94;1819843;77;21003;-82
2022/12/28 09:36:43;;;;;;;7.40;4.08;;;;;;;5.52;56.58;101150.66;1812287;77;21458;-82
2022/12/28 09:39:16;;;;;;;8.88;4.17;;;;;;;5.56;56.57;101150.89;1822576;78;21095;-81
2022/12/28 09:41:58;;;;;;;9.00;4.60;;;;;;;5.63;56.83;101152.75;1823536;77;21085;-82
2022/12/28 09:45:04;;;;;;;11.18;4.55;;;;;;;5.69;56.25;101155.92;1825318;77;20971;-82
2022/12/28 09:47:44;;;;;;;9.80;4.55;;;;;;;5.73;56.49;101161.40;1826021;77;21348;-82
2022/12/28 09:50:24;;;;;;;5.80;2.02;;;;;;;5.75;56.04;101159.56;1822141;77;21176;-82
2022/12/28 09:52:59;;;;;;;6.95;2.85;;;;;;;5.72;55.53;101163.61;1804977;76;21040;-80
2022/12/28 09:55:26;;;;;;;8.28;4.25;;;;;;;5.71;54.48;101165.83;1814414;75;21000;-82
2022/12/28 09:59:59;;;;;;;6.37;2.42;;;;;;;5.66;55.62;101186.55;1794890;78;23220;-65
2022/12/28 10:02:31;;;;;;;10.48;4.28;;;;;;;5.75;54.86;101187.45;1774176;80;20907;-65
2022/12/28 10:04:58;;;;;;;9.38;4.00;;;;;;;5.73;54.48;101187.52;1764961;80;21241;-65
2022/12/28 10:07:25;;;;;;;7.78;3.87;;;;;;;5.66;54.10;101183.48;1756265;81;21744;-65
2022/12/28 10:09:52;;;;;;;8.50;4.40;;;;;;;5.67;54.11;101185.18;1756290;81;21042;-65
2022/12/28 10:12:23;;;;;;;8.60;3.95;;;;;;;5.68;54.23;101186.89;1756495;80;21125;-65
2022/12/28 10:14:50;;;;;;;5.47;1.25;;;;;;;5.69;53.88;101191.64;1717630;82;21085;-64
2022/12/28 10:17:17;;;;;;;8.00;3.45;;;;;;;5.71;53.90;101189.80;1685337;82;21279;-65
2022/12/28 10:19:45;;;;;;;25.62;12.88;;;;;;;5.70;53.67;101185.48;1713377;82;21537;-66
2022/12/28 10:22:17;;;;;;;10.40;4.25;;;;;;;5.64;53.48;101183.17;1706099;82;21070;-67
2022/12/28 10:24:45;;;;;;;8.30;3.45;;;;;;;5.64;53.47;101184.02;1714325;82;21500;-66
2022/12/28 10:27:24;;;;;;;10.23;3.70;;;;;;;5.66;53.18;101173.03;1705832;82;21131;-66
2022/12/28 10:29:51;;;;;;;7.03;1.82;;;;;;;5.68;52.37;101168.61;1725262;82;21242;-64
2022/12/28 10:32:18;;;;;;;11.35;3.37;;;;;;;5.73;51.99;101175.77;1713624;82;21054;-65
2022/12/28 10:34:59;;;;;;;4.30;1.57;;;;;;;5.72;51.12;101174.06;1709813;82;21046;-64
2022/12/28 10:39:41;;;;;;;7.37;3.22;;;;;;;5.61;51.32;101176.31;1796309;78;22486;-64
2022/12/28 10:46:19;;;;;;;8.25;3.67;;;;;;;5.55;51.60;101181.38;1863664;74;22681;-67
2022/12/28 10:51:26;;;;;;;8.28;3.37;;;;;;;5.68;49.46;101174.27;1793217;78;22580;-66
2022/12/28 10:53:56;;;;;;;8.80;2.92;;;;;;;5.84;49.38;101179.16;1783038;80;21548;-66
2022/12/28 10:56:31;;;;;;;7.62;2.60;;;;;;;5.83;47.86;101184.45;1766569;80;21846;-65
2022/12/28 10:59:18;;;;;;;4.35;0.95;;;;;;;5.82;47.34;101178.39;1763807;80;21578;-66
2022/12/28 11:01:45;;;;;;;;;;;;;;;5.75;47.43;101181.75;1763236;80;20940;-66
2022/12/28 11:04:22;;;;;;;9.58;2.70;;;;;;;5.65;47.48;101192.69;1723002;83;20164;-65
2022/12/28 11:06:59;;;;;;;8.15;3.27;;;;;;;5.53;47.46;101194.09;1696381;83;21569;-65
2022/12/28 11:09:27;;;;;;;;;;;;;;;5.43;47.73;101187.61;1713843;82;21158;-65
2022/12/28 11:11:56;;;;;;;;;;;;;;;5.42;48.17;101188.08;1755283;81;20130;-65
2022/12/28 11:14:31;;;;;;;;;;;;;;;5.37;48.46;101186.97;1705138;84;20498;-64
2022/12/28 11:16:57;;;;;;;;;;;;;;;5.40;48.62;101189.45;1753115;81;20483;-65
2022/12/28 11:19:24;;;;;;;;;;;;;;;5.47;48.93;101193.09;1739529;82;20674;-65
2022/12/28 11:21:50;;;;;;;;;;;;;;;5.52;48.95;101193.73;1716830;83;21160;-66
2022/12/28 11:24:17;;;;;;;;;;;;;;;5.57;49.03;101192.59;1714768;81;20236;-66
2022/12/28 11:26:46;;;;;;;;;;;;;;;5.67;49.43;101192.17;1720098;83;20188;-65
2022/12/28 11:29:14;;;;;;;;;;;;;;;5.73;49.18;101178.81;1726023;82;20433;-65
2022/12/28 11:31:49;;;;;;;;;;;;;;;5.77;48.54;101179.08;1728997;81;20192;-65
2022/12/28 11:34:18;;;;;;;;;;;;;;;5.80;48.20;101202.44;1700656;83;21968;-65
2022/12/28 11:36:44;;;;;;;;;;;;;;;5.77;48.43;101204.72;1726310;81;20173;-65
2022/12/28 11:39:29;;;;;;;;;;;;;;;5.74;48.55;101200.10;1702275;83;20484;-65
2022/12/28 11:41:58;;;;;;;;;;;;;;;5.69;48.68;101197.70;1721280;82;20145;-66
2022/12/28 11:44:31;;;;;;;;;;;;;;;5.61;49.13;101206.81;1716010;82;20200;-65
2022/12/28 11:47:03;;;;;;;;;;;;;;;5.50;49.62;101204.70;1735565;81;21158;-65
2022/12/28 11:49:31;;;;;;;;;;;;;;;5.40;49.77;101218.16;1711254;83;20523;-65
2022/12/28 11:52:22;;;;;;;;;;;;;;;5.29;49.76;101215.17;1703294;82;20290;-65
2022/12/28 11:55:16;;;;;;;;;;;;;;;5.19;49.58;101209.98;1726481;82;20234;-64
2022/12/28 11:57:43;;;;;;;;;;;;;;;5.13;50.02;101216.33;1702668;82;20157;-64
2022/12/28 12:00:22;;;;;;;;;;;;;;;5.08;50.28;101216.98;1717917;83;21141;-65
2022/12/28 12:02:50;;;;;;;;;;;;;;;5.10;50.35;101220.37;1721938;82;20151;-64
2022/12/28 12:05:37;;;;;;;;;;;;;;;5.09;50.08;101217.83;1709332;83;20150;-64
2022/12/28 12:08:17;;;;;;;;;;;;;;;5.08;50.22;101227.86;1707625;83;20169;-64
2022/12/28 12:10:44;;;;;;;;;;;;;;;5.10;50.08;101227.36;1714137;82;20415;-67
2022/12/28 12:13:30;;;;;;;;;;;;;;;5.05;49.68;101233.23;1735449;82;21151;-65
2022/12/28 12:17:48;;;;;;;3.40;1.07;;;;;;;4.96;50.46;101240.97;1792934;79;22085;-64
2022/12/28 12:23:03;;;;;;;5.00;1.17;;;;;;;4.94;50.64;101226.72;1796801;78;21893;-65
2022/12/28 12:25:39;;;;;;;7.50;2.75;;;;;;;5.06;50.54;101231.00;1766548;80;20968;-66
2022/12/28 12:28:40;;;;;;;11.78;2.98;;;;;;;5.08;50.78;101243.08;1776348;80;21244;-66
2022/12/28 12:31:10;;;;;;;4.05;1.15;;;;;;;5.09;50.45;101239.53;1756397;80;22283;-64
2022/12/28 12:33:43;;;;;;;10.18;1.82;;;;;;;5.08;50.44;101252.64;1722751;83;20986;-67
2022/12/28 12:36:30;;;;;;;6.62;2.65;;;;;;;5.09;50.65;101258.26;1696385;82;21136;-65
2022/12/28 12:39:14;;;;;;;5.60;1.22;;;;;;;5.16;50.87;101269.69;1704122;82;21047;-65
2022/12/28 12:42:03;;;;;;;8.03;2.60;;;;;;;5.20;50.75;101271.23;1725858;81;21313;-64
2022/12/28 12:44:48;;;;;;;8.43;3.20;;;;;;;5.23;50.87;101268.96;1725010;81;20995;-65
2022/12/28 12:47:35;;;;;;;3.75;1.10;;;;;;;5.28;51.04;101270.91;1734273;81;21086;-65
2022/12/28 12:50:27;;;;;;;5.95;2.08;;;;;;;5.39;51.06;101272.57;1750342;80;21016;-65
2022/12/28 12:53:19;;;;;;;7.28;3.35;;;;;;;5.51;50.82;101269.88;1713502;81;21089;-68
2022/12/28 12:56:21;;;;;;;8.83;2.75;;;;;;;5.65;50.71;101274.50;1715981;83;21168;-64
2022/12/28 12:59:45;;;;;;;7.72;3.02;;;;;;;6.57;49.67;101276.33;1722368;83;21107;-64